sensor_id;sensor_type;location;lat;lon;timestamp;P1;durP1;ratioP1;P2;durP2;ratioP2
48522;SDS011;34315;50.150;11.070;2023-02-15T00:03:40;17.23;;;7.68;;
48522;SDS011;34315;50.150;11.070;2023-02-15T00:08:41;16.55;;;7.75;;
48522;SDS011;34315;50.150;11.070;2023-02-15T00:13:43;15.57;;;7.05;;
48522;SDS011;34315;50.150;11.070;2023-02-15T00:18:44;13.52;;;6.45;;
48522;SDS011;34315;50.150;11.070;2023-02-15T00:23:45;14.90;;;6.68;;
48522;SDS011;34315;50.150;11.070;2023-02-15T00:28:46;12.20;;;6.55;;
48522;SDS011;34315;50.150;11.070;2023-02-15T00:33:47;13.48;;;6.47;;
48522;SDS011;34315;50.150;11.070;2023-02-15T00:38:48;16.33;;;7.13;;
48522;SDS011;34315;50.150;11.070;2023-02-15T00:43:49;10.52;;;5.78;;
48522;SDS011;34315;50.150;11.070;2023-02-15T00:48:50;11.65;;;5.93;;
48522;SDS011;34315;50.150;11.070;2023-02-15T00:53:51;10.90;;;5.63;;
48522;SDS011;34315;50.150;11.070;2023-02-15T00:58:53;11.88;;;6.10;;
48522;SDS011;34315;50.150;11.070;2023-02-15T01:03:54;12.00;;;6.32;;
48522;SDS011;34315;50.150;11.070;2023-02-15T01:08:55;12.07;;;5.93;;
48522;SDS011;34315;50.150;11.070;2023-02-15T01:13:57;9.73;;;5.00;;
48522;SDS011;34315;50.150;11.070;2023-02-15T01:18:58;12.60;;;6.20;;
48522;SDS011;34315;50.150;11.070;2023-02-15T01:24:00;10.10;;;5.43;;
48522;SDS011;34315;50.150;11.070;2023-02-15T01:29:01;10.57;;;5.63;;
48522;SDS011;34315;50.150;11.070;2023-02-15T01:34:02;10.52;;;5.03;;
48522;SDS011;34315;50.150;11.070;2023-02-15T01:39:05;11.23;;;5.88;;
48522;SDS011;34315;50.150;11.070;2023-02-15T01:50:03;13.65;;;5.38;;
48522;SDS011;34315;50.150;11.070;2023-02-15T02:00:30;11.48;;;5.88;;
48522;SDS011;34315;50.150;11.070;2023-02-15T02:05:31;11.10;;;4.90;;
48522;SDS011;34315;50.150;11.070;2023-02-15T02:10:33;9.55;;;4.80;;
48522;SDS011;34315;50.150;11.070;2023-02-15T02:20:56;9.35;;;4.75;;
48522;SDS011;34315;50.150;11.070;2023-02-15T02:26:08;9.68;;;5.38;;
48522;SDS011;34315;50.150;11.070;2023-02-15T02:37:19;10.13;;;5.20;;
48522;SDS011;34315;50.150;11.070;2023-02-15T02:42:38;10.55;;;5.35;;
48522;SDS011;34315;50.150;11.070;2023-02-15T02:47:46;9.80;;;4.72;;
48522;SDS011;34315;50.150;11.070;2023-02-15T02:52:51;10.00;;;4.80;;
48522;SDS011;34315;50.150;11.070;2023-02-15T02:57:54;9.45;;;4.70;;
48522;SDS011;34315;50.150;11.070;2023-02-15T03:02:58;9.82;;;4.72;;
48522;SDS011;34315;50.150;11.070;2023-02-15T03:08:05;8.40;;;4.53;;
48522;SDS011;34315;50.150;11.070;2023-02-15T03:13:10;9.57;;;5.03;;
48522;SDS011;34315;50.150;11.070;2023-02-15T03:18:12;9.52;;;4.82;;
48522;SDS011;34315;50.150;11.070;2023-02-15T03:23:14;9.57;;;4.72;;
48522;SDS011;34315;50.150;11.070;2023-02-15T03:28:21;9.80;;;5.13;;
48522;SDS011;34315;50.150;11.070;2023-02-15T03:33:24;9.38;;;4.93;;
48522;SDS011;34315;50.150;11.070;2023-02-15T03:38:38;10.48;;;5.32;;
48522;SDS011;34315;50.150;11.070;2023-02-15T03:43:45;9.63;;;5.15;;
48522;SDS011;34315;50.150;11.070;2023-02-15T03:48:54;11.25;;;5.80;;
48522;SDS011;34315;50.150;11.070;2023-02-15T03:53:58;11.63;;;5.72;;
48522;SDS011;34315;50.150;11.070;2023-02-15T03:59:41;17.40;;;9.32;;
48522;SDS011;34315;50.150;11.070;2023-02-15T04:05:01;11.30;;;4.85;;
48522;SDS011;34315;50.150;11.070;2023-02-15T04:10:02;10.20;;;5.10;;
48522;SDS011;34315;50.150;11.070;2023-02-15T04:15:22;11.90;;;6.00;;
48522;SDS011;34315;50.150;11.070;2023-02-15T04:20:45;11.55;;;5.75;;
48522;SDS011;34315;50.150;11.070;2023-02-15T04:26:05;11.73;;;6.18;;
48522;SDS011;34315;50.150;11.070;2023-02-15T04:31:06;10.73;;;5.78;;
48522;SDS011;34315;50.150;11.070;2023-02-15T04:36:08;12.38;;;5.93;;
48522;SDS011;34315;50.150;11.070;2023-02-15T04:41:09;10.65;;;6.00;;
48522;SDS011;34315;50.150;11.070;2023-02-15T04:46:12;10.95;;;5.47;;
48522;SDS011;34315;50.150;11.070;2023-02-15T04:51:13;10.02;;;5.80;;
48522;SDS011;34315;50.150;11.070;2023-02-15T04:56:14;10.65;;;5.35;;
48522;SDS011;34315;50.150;11.070;2023-02-15T05:01:15;10.75;;;5.57;;
48522;SDS011;34315;50.150;11.070;2023-02-15T05:06:17;8.63;;;4.85;;
48522;SDS011;34315;50.150;11.070;2023-02-15T05:11:18;10.27;;;4.53;;
48522;SDS011;34315;50.150;11.070;2023-02-15T05:16:19;9.88;;;4.38;;
48522;SDS011;34315;50.150;11.070;2023-02-15T05:21:21;10.15;;;4.85;;
48522;SDS011;34315;50.150;11.070;2023-02-15T05:26:23;10.38;;;5.55;;
48522;SDS011;34315;50.150;11.070;2023-02-15T05:31:43;9.98;;;5.03;;
48522;SDS011;34315;50.150;11.070;2023-02-15T05:36:47;11.40;;;5.82;;
48522;SDS011;34315;50.150;11.070;2023-02-15T05:41:48;10.23;;;5.00;;
48522;SDS011;34315;50.150;11.070;2023-02-15T05:46:49;10.05;;;5.03;;
48522;SDS011;34315;50.150;11.070;2023-02-15T05:51:51;9.75;;;5.20;;
48522;SDS011;34315;50.150;11.070;2023-02-15T05:56:52;8.55;;;4.10;;
48522;SDS011;34315;50.150;11.070;2023-02-15T06:01:53;7.82;;;4.10;;
48522;SDS011;34315;50.150;11.070;2023-02-15T06:06:54;9.55;;;5.47;;
48522;SDS011;34315;50.150;11.070;2023-02-15T06:11:55;8.38;;;4.13;;
48522;SDS011;34315;50.150;11.070;2023-02-15T06:16:56;7.95;;;4.28;;
48522;SDS011;34315;50.150;11.070;2023-02-15T06:21:57;10.00;;;4.75;;
48522;SDS011;34315;50.150;11.070;2023-02-15T06:26:59;8.30;;;4.50;;
48522;SDS011;34315;50.150;11.070;2023-02-15T06:32:00;8.98;;;5.03;;
48522;SDS011;34315;50.150;11.070;2023-02-15T06:37:01;10.02;;;4.75;;
48522;SDS011;34315;50.150;11.070;2023-02-15T06:42:02;7.95;;;4.00;;
48522;SDS011;34315;50.150;11.070;2023-02-15T06:47:03;9.52;;;4.43;;
48522;SDS011;34315;50.150;11.070;2023-02-15T06:52:04;11.18;;;5.80;;
48522;SDS011;34315;50.150;11.070;2023-02-15T06:57:05;8.32;;;4.32;;
48522;SDS011;34315;50.150;11.070;2023-02-15T07:02:07;8.93;;;4.85;;
48522;SDS011;34315;50.150;11.070;2023-02-15T07:07:09;9.77;;;5.00;;
48522;SDS011;34315;50.150;11.070;2023-02-15T07:12:11;11.20;;;5.13;;
48522;SDS011;34315;50.150;11.070;2023-02-15T07:17:31;8.45;;;4.78;;
48522;SDS011;34315;50.150;11.070;2023-02-15T07:22:33;10.05;;;5.18;;
48522;SDS011;34315;50.150;11.070;2023-02-15T07:27:36;9.85;;;5.28;;
48522;SDS011;34315;50.150;11.070;2023-02-15T07:32:38;10.98;;;5.10;;
48522;SDS011;34315;50.150;11.070;2023-02-15T07:37:59;7.90;;;4.30;;
48522;SDS011;34315;50.150;11.070;2023-02-15T07:43:00;9.07;;;5.15;;
48522;SDS011;34315;50.150;11.070;2023-02-15T07:48:02;10.15;;;5.05;;
48522;SDS011;34315;50.150;11.070;2023-02-15T07:53:03;9.95;;;4.93;;
48522;SDS011;34315;50.150;11.070;2023-02-15T07:58:04;10.85;;;5.40;;
48522;SDS011;34315;50.150;11.070;2023-02-15T08:03:05;10.27;;;5.35;;
48522;SDS011;34315;50.150;11.070;2023-02-15T08:08:15;9.13;;;5.10;;
48522;SDS011;34315;50.150;11.070;2023-02-15T08:13:35;8.73;;;5.03;;
48522;SDS011;34315;50.150;11.070;2023-02-15T08:18:54;10.00;;;5.38;;
48522;SDS011;34315;50.150;11.070;2023-02-15T08:23:56;11.70;;;5.63;;
48522;SDS011;34315;50.150;11.070;2023-02-15T08:28:58;9.25;;;4.93;;
48522;SDS011;34315;50.150;11.070;2023-02-15T08:34:00;8.35;;;4.90;;
48522;SDS011;34315;50.150;11.070;2023-02-15T08:39:01;9.05;;;4.80;;
48522;SDS011;34315;50.150;11.070;2023-02-15T08:44:04;11.90;;;5.18;;
48522;SDS011;34315;50.150;11.070;2023-02-15T08:49:08;12.40;;;5.32;;
48522;SDS011;34315;50.150;11.070;2023-02-15T08:54:12;10.43;;;4.72;;
48522;SDS011;34315;50.150;11.070;2023-02-15T08:59:15;10.23;;;5.53;;
48522;SDS011;34315;50.150;11.070;2023-02-15T09:04:17;10.23;;;4.70;;
48522;SDS011;34315;50.150;11.070;2023-02-15T09:09:18;11.07;;;5.55;;
48522;SDS011;34315;50.150;11.070;2023-02-15T09:14:20;9.32;;;5.35;;
48522;SDS011;34315;50.150;11.070;2023-02-15T09:19:22;12.00;;;5.78;;
48522;SDS011;34315;50.150;11.070;2023-02-15T09:24:23;13.50;;;6.90;;
48522;SDS011;34315;50.150;11.070;2023-02-15T09:29:25;9.85;;;5.05;;
48522;SDS011;34315;50.150;11.070;2023-02-15T09:34:26;10.15;;;5.30;;
48522;SDS011;34315;50.150;11.070;2023-02-15T09:39:27;10.07;;;5.25;;
48522;SDS011;34315;50.150;11.070;2023-02-15T09:44:47;11.38;;;5.45;;
48522;SDS011;34315;50.150;11.070;2023-02-15T10:11:40;13.63;;;5.93;;
48522;SDS011;34315;50.150;11.070;2023-02-15T10:17:04;11.77;;;6.50;;
48522;SDS011;34315;50.150;11.070;2023-02-15T10:28:05;10.32;;;5.00;;
48522;SDS011;34315;50.150;11.070;2023-02-15T10:33:14;9.23;;;5.15;;
48522;SDS011;34315;50.150;11.070;2023-02-15T10:38:40;9.93;;;5.03;;
48522;SDS011;34315;50.150;11.070;2023-02-15T10:44:00;10.80;;;4.80;;
48522;SDS011;34315;50.150;11.070;2023-02-15T10:54:22;11.35;;;6.07;;
48522;SDS011;34315;50.150;11.070;2023-02-15T11:09:51;11.68;;;5.55;;
48522;SDS011;34315;50.150;11.070;2023-02-15T11:15:41;9.88;;;5.43;;
48522;SDS011;34315;50.150;11.070;2023-02-15T11:20:36;10.30;;;5.80;;
48522;SDS011;34315;50.150;11.070;2023-02-15T11:25:53;11.45;;;6.15;;
48522;SDS011;34315;50.150;11.070;2023-02-15T11:30:58;10.15;;;5.80;;
48522;SDS011;34315;50.150;11.070;2023-02-15T11:36:13;12.27;;;5.90;;
48522;SDS011;34315;50.150;11.070;2023-02-15T11:41:21;10.82;;;6.15;;
48522;SDS011;34315;50.150;11.070;2023-02-15T11:46:25;14.15;;;7.15;;
48522;SDS011;34315;50.150;11.070;2023-02-15T11:51:26;12.52;;;6.63;;
48522;SDS011;34315;50.150;11.070;2023-02-15T11:56:30;11.88;;;6.57;;
48522;SDS011;34315;50.150;11.070;2023-02-15T12:06:41;12.75;;;7.63;;
48522;SDS011;34315;50.150;11.070;2023-02-15T12:11:46;12.10;;;6.60;;
48522;SDS011;34315;50.150;11.070;2023-02-15T12:16:50;13.02;;;6.93;;
48522;SDS011;34315;50.150;11.070;2023-02-15T12:21:52;11.43;;;6.72;;
48522;SDS011;34315;50.150;11.070;2023-02-15T12:27:03;12.10;;;6.82;;
48522;SDS011;34315;50.150;11.070;2023-02-15T12:32:09;11.77;;;6.32;;
48522;SDS011;34315;50.150;11.070;2023-02-15T12:37:17;23.08;;;11.02;;
48522;SDS011;34315;50.150;11.070;2023-02-15T12:42:28;19.73;;;9.27;;
48522;SDS011;34315;50.150;11.070;2023-02-15T12:47:42;14.40;;;7.88;;
48522;SDS011;34315;50.150;11.070;2023-02-15T12:52:44;14.30;;;7.75;;
48522;SDS011;34315;50.150;11.070;2023-02-15T12:57:46;14.27;;;7.70;;
48522;SDS011;34315;50.150;11.070;2023-02-15T13:02:49;15.68;;;7.68;;
48522;SDS011;34315;50.150;11.070;2023-02-15T13:07:53;13.60;;;7.18;;
48522;SDS011;34315;50.150;11.070;2023-02-15T13:13:00;14.70;;;8.25;;
48522;SDS011;34315;50.150;11.070;2023-02-15T13:18:04;14.38;;;8.40;;
48522;SDS011;34315;50.150;11.070;2023-02-15T13:23:10;14.27;;;8.20;;
48522;SDS011;34315;50.150;11.070;2023-02-15T13:28:22;12.48;;;6.68;;
48522;SDS011;34315;50.150;11.070;2023-02-15T13:33:29;13.52;;;7.63;;
48522;SDS011;34315;50.150;11.070;2023-02-15T13:49:17;16.65;;;8.75;;
48522;SDS011;34315;50.150;11.070;2023-02-15T14:05:15;17.98;;;8.77;;
48522;SDS011;34315;50.150;11.070;2023-02-15T14:15:51;15.75;;;8.73;;
48522;SDS011;34315;50.150;11.070;2023-02-15T14:21:15;19.00;;;10.93;;
48522;SDS011;34315;50.150;11.070;2023-02-15T14:26:31;15.57;;;8.80;;
48522;SDS011;34315;50.150;11.070;2023-02-15T14:31:43;18.77;;;9.95;;
48522;SDS011;34315;50.150;11.070;2023-02-15T14:36:50;15.68;;;8.88;;
48522;SDS011;34315;50.150;11.070;2023-02-15T14:41:53;16.75;;;9.23;;
48522;SDS011;34315;50.150;11.070;2023-02-15T14:47:00;17.02;;;8.93;;
48522;SDS011;34315;50.150;11.070;2023-02-15T14:52:07;16.63;;;8.90;;
48522;SDS011;34315;50.150;11.070;2023-02-15T15:02:15;16.15;;;8.40;;
48522;SDS011;34315;50.150;11.070;2023-02-15T15:07:23;17.90;;;9.27;;
48522;SDS011;34315;50.150;11.070;2023-02-15T15:22:39;18.45;;;9.60;;
48522;SDS011;34315;50.150;11.070;2023-02-15T15:27:44;19.80;;;9.20;;
48522;SDS011;34315;50.150;11.070;2023-02-15T15:38:02;17.02;;;9.95;;
48522;SDS011;34315;50.150;11.070;2023-02-15T15:48:55;21.45;;;10.57;;
48522;SDS011;34315;50.150;11.070;2023-02-15T15:54:02;18.20;;;9.57;;
48522;SDS011;34315;50.150;11.070;2023-02-15T15:59:05;17.70;;;10.30;;
48522;SDS011;34315;50.150;11.070;2023-02-15T16:04:11;23.45;;;12.10;;
48522;SDS011;34315;50.150;11.070;2023-02-15T16:09:21;20.38;;;11.82;;
48522;SDS011;34315;50.150;11.070;2023-02-15T16:14:30;24.77;;;10.88;;
48522;SDS011;34315;50.150;11.070;2023-02-15T16:19:33;20.67;;;11.70;;
48522;SDS011;34315;50.150;11.070;2023-02-15T16:29:49;20.33;;;10.65;;
48522;SDS011;34315;50.150;11.070;2023-02-15T16:34:54;15.35;;;9.52;;
48522;SDS011;34315;50.150;11.070;2023-02-15T16:39:56;19.70;;;10.27;;
48522;SDS011;34315;50.150;11.070;2023-02-15T16:45:01;19.58;;;11.07;;
48522;SDS011;34315;50.150;11.070;2023-02-15T16:50:46;21.05;;;10.98;;
48522;SDS011;34315;50.150;11.070;2023-02-15T16:55:39;22.85;;;12.85;;
48522;SDS011;34315;50.150;11.070;2023-02-15T17:00:42;22.13;;;12.68;;
48522;SDS011;34315;50.150;11.070;2023-02-15T17:05:44;19.70;;;11.60;;
48522;SDS011;34315;50.150;11.070;2023-02-15T17:11:05;17.58;;;9.98;;
48522;SDS011;34315;50.150;11.070;2023-02-15T17:16:23;23.60;;;12.25;;
48522;SDS011;34315;50.150;11.070;2023-02-15T17:21:32;21.70;;;11.95;;
48522;SDS011;34315;50.150;11.070;2023-02-15T17:26:42;24.88;;;12.88;;
48522;SDS011;34315;50.150;11.070;2023-02-15T17:31:44;22.08;;;11.10;;
48522;SDS011;34315;50.150;11.070;2023-02-15T17:36:56;18.90;;;10.35;;
48522;SDS011;34315;50.150;11.070;2023-02-15T17:41:59;19.77;;;11.25;;
48522;SDS011;34315;50.150;11.070;2023-02-15T17:47:01;21.85;;;11.50;;
48522;SDS011;34315;50.150;11.070;2023-02-15T17:52:02;22.40;;;12.25;;
48522;SDS011;34315;50.150;11.070;2023-02-15T17:57:08;22.05;;;12.90;;
48522;SDS011;34315;50.150;11.070;2023-02-15T18:02:12;22.90;;;13.30;;
48522;SDS011;34315;50.150;11.070;2023-02-15T18:07:31;24.63;;;14.60;;
48522;SDS011;34315;50.150;11.070;2023-02-15T18:12:51;25.25;;;13.13;;
48522;SDS011;34315;50.150;11.070;2023-02-15T18:17:52;25.67;;;14.00;;
48522;SDS011;34315;50.150;11.070;2023-02-15T18:22:53;23.00;;;13.05;;
48522;SDS011;34315;50.150;11.070;2023-02-15T18:27:55;27.65;;;14.43;;
48522;SDS011;34315;50.150;11.070;2023-02-15T18:32:56;26.48;;;13.88;;
48522;SDS011;34315;50.150;11.070;2023-02-15T18:37:58;28.52;;;14.93;;
48522;SDS011;34315;50.150;11.070;2023-02-15T18:43:00;25.23;;;14.05;;
48522;SDS011;34315;50.150;11.070;2023-02-15T18:48:01;25.92;;;14.23;;
48522;SDS011;34315;50.150;11.070;2023-02-15T18:53:03;26.85;;;14.57;;
48522;SDS011;34315;50.150;11.070;2023-02-15T18:58:08;30.27;;;14.95;;
48522;SDS011;34315;50.150;11.070;2023-02-15T19:03:17;30.55;;;15.60;;
48522;SDS011;34315;50.150;11.070;2023-02-15T19:08:19;31.67;;;14.23;;
48522;SDS011;34315;50.150;11.070;2023-02-15T19:13:24;25.77;;;13.95;;
48522;SDS011;34315;50.150;11.070;2023-02-15T19:18:25;24.95;;;13.43;;
48522;SDS011;34315;50.150;11.070;2023-02-15T19:23:26;25.42;;;13.45;;
48522;SDS011;34315;50.150;11.070;2023-02-15T19:28:33;30.02;;;14.13;;
48522;SDS011;34315;50.150;11.070;2023-02-15T19:33:34;25.33;;;13.35;;
48522;SDS011;34315;50.150;11.070;2023-02-15T19:38:35;24.27;;;12.38;;
48522;SDS011;34315;50.150;11.070;2023-02-15T19:43:36;26.13;;;12.65;;
48522;SDS011;34315;50.150;11.070;2023-02-15T19:48:38;29.80;;;14.50;;
48522;SDS011;34315;50.150;11.070;2023-02-15T19:53:39;28.15;;;15.07;;
48522;SDS011;34315;50.150;11.070;2023-02-15T19:58:40;25.77;;;13.00;;
48522;SDS011;34315;50.150;11.070;2023-02-15T20:03:41;28.08;;;14.25;;
48522;SDS011;34315;50.150;11.070;2023-02-15T20:08:42;27.23;;;14.02;;
48522;SDS011;34315;50.150;11.070;2023-02-15T20:13:43;27.33;;;14.02;;
48522;SDS011;34315;50.150;11.070;2023-02-15T20:18:45;29.48;;;14.88;;
48522;SDS011;34315;50.150;11.070;2023-02-15T20:23:46;26.90;;;13.57;;
48522;SDS011;34315;50.150;11.070;2023-02-15T20:28:48;28.27;;;13.90;;
48522;SDS011;34315;50.150;11.070;2023-02-15T20:33:49;29.55;;;14.57;;
48522;SDS011;34315;50.150;11.070;2023-02-15T20:38:51;27.05;;;13.63;;
48522;SDS011;34315;50.150;11.070;2023-02-15T20:43:52;31.85;;;14.98;;
48522;SDS011;34315;50.150;11.070;2023-02-15T20:48:53;27.58;;;13.93;;
48522;SDS011;34315;50.150;11.070;2023-02-15T20:53:54;29.45;;;14.40;;
48522;SDS011;34315;50.150;11.070;2023-02-15T20:58:55;27.60;;;13.52;;
48522;SDS011;34315;50.150;11.070;2023-02-15T21:03:56;25.75;;;13.13;;
48522;SDS011;34315;50.150;11.070;2023-02-15T21:08:57;28.25;;;13.27;;
48522;SDS011;34315;50.150;11.070;2023-02-15T21:13:58;26.90;;;12.98;;
48522;SDS011;34315;50.150;11.070;2023-02-15T21:18:59;25.33;;;12.32;;
48522;SDS011;34315;50.150;11.070;2023-02-15T21:24:00;27.27;;;13.35;;
48522;SDS011;34315;50.150;11.070;2023-02-15T21:29:02;25.75;;;12.73;;
48522;SDS011;34315;50.150;11.070;2023-02-15T21:34:03;33.33;;;14.70;;
48522;SDS011;34315;50.150;11.070;2023-02-15T21:39:04;25.02;;;13.02;;
48522;SDS011;34315;50.150;11.070;2023-02-15T21:44:16;29.27;;;14.20;;
48522;SDS011;34315;50.150;11.070;2023-02-15T21:49:41;28.27;;;13.98;;
48522;SDS011;34315;50.150;11.070;2023-02-15T21:54:42;27.88;;;13.85;;
48522;SDS011;34315;50.150;11.070;2023-02-15T21:59:43;26.58;;;13.25;;
48522;SDS011;34315;50.150;11.070;2023-02-15T22:04:46;27.52;;;13.90;;
48522;SDS011;34315;50.150;11.070;2023-02-15T22:09:47;26.30;;;14.63;;
48522;SDS011;34315;50.150;11.070;2023-02-15T22:14:49;23.35;;;11.65;;
48522;SDS011;34315;50.150;11.070;2023-02-15T22:19:52;23.38;;;12.52;;
48522;SDS011;34315;50.150;11.070;2023-02-15T22:24:54;24.48;;;11.55;;
48522;SDS011;34315;50.150;11.070;2023-02-15T22:29:55;23.65;;;12.98;;
48522;SDS011;34315;50.150;11.070;2023-02-15T22:34:57;23.77;;;12.65;;
48522;SDS011;34315;50.150;11.070;2023-02-15T22:39:58;23.45;;;11.82;;
48522;SDS011;34315;50.150;11.070;2023-02-15T22:44:59;23.70;;;13.32;;
48522;SDS011;34315;50.150;11.070;2023-02-15T22:50:00;24.25;;;13.63;;
48522;SDS011;34315;50.150;11.070;2023-02-15T22:55:02;23.92;;;13.15;;
48522;SDS011;34315;50.150;11.070;2023-02-15T23:00:04;23.77;;;12.32;;
48522;SDS011;34315;50.150;11.070;2023-02-15T23:05:13;26.48;;;13.23;;
48522;SDS011;34315;50.150;11.070;2023-02-15T23:10:17;25.92;;;13.00;;
48522;SDS011;34315;50.150;11.070;2023-02-15T23:15:22;25.70;;;12.98;;
48522;SDS011;34315;50.150;11.070;2023-02-15T23:20:23;26.45;;;13.45;;
48522;SDS011;34315;50.150;11.070;2023-02-15T23:25:25;25.02;;;12.15;;
48522;SDS011;34315;50.150;11.070;2023-02-15T23:30:28;22.50;;;11.60;;
48522;SDS011;34315;50.150;11.070;2023-02-15T23:35:29;23.58;;;11.45;;
48522;SDS011;34315;50.150;11.070;2023-02-15T23:40:31;23.13;;;11.32;;
48522;SDS011;34315;50.150;11.070;2023-02-15T23:45:50;22.02;;;11.93;;
48522;SDS011;34315;50.150;11.070;2023-02-15T23:50:51;18.45;;;10.45;;
48522;SDS011;34315;50.150;11.070;2023-02-15T23:55:52;21.23;;;11.10;;
